Time;durP1;ratioP1;P1;durP2;ratioP2;P2;SDS_P1;SDS_P2;PMS_P1;PMS_P2;Temp;Humidity;BMP_temperature;BMP_pressure;BME280_temperature;BME280_humidity;BME280_pressure;Samples;Min_cycle;Max_cycle;Signal;HPM_P1;HPM_P2
2021/10/06 00:01:32;;;;;;;4.57;0.60;;;10.90;99.90;;;;;;4981594;28;20039;-62
2021/10/06 00:03:58;;;;;;;4.80;0.98;;;10.90;99.90;;;;;;4981950;28;20042;-62
2021/10/06 00:06:24;;;;;;;5.32;0.82;;;10.80;99.90;;;;;;4980789;28;20045;-61
2021/10/06 00:08:50;;;;;;;6.57;1.00;;;10.80;99.90;;;;;;4982460;28;20039;-62
2021/10/06 00:11:16;;;;;;;7.97;1.50;;;10.80;99.90;;;;;;4983704;28;20042;-63
2021/10/06 00:13:41;;;;;;;3.67;0.90;;;10.80;99.90;;;;;;4983836;28;20030;-62
2021/10/06 00:16:10;;;;;;;3.80;0.80;;;10.80;99.90;;;;;;4979771;28;20030;-63
2021/10/06 00:18:36;;;;;;;3.50;1.30;;;10.80;99.90;;;;;;4980720;28;20104;-62
2021/10/06 00:21:02;;;;;;;6.63;0.90;;;10.80;99.90;;;;;;4980965;28;20416;-60
2021/10/06 00:23:29;;;;;;;5.82;1.15;;;10.90;99.90;;;;;;4981106;28;20031;-63
2021/10/06 00:25:55;;;;;;;5.55;1.15;;;10.80;99.90;;;;;;4980377;28;20097;-61
2021/10/06 00:28:20;;;;;;;6.82;1.17;;;10.90;99.90;;;;;;4979830;28;20482;-62
2021/10/06 00:30:46;;;;;;;7.32;2.35;;;10.90;99.90;;;;;;4982641;28;20049;-62
2021/10/06 00:33:11;;;;;;;7.38;1.33;;;10.90;99.90;;;;;;4979548;28;20034;-62
2021/10/06 00:35:37;;;;;;;8.52;1.27;;;10.90;99.90;;;;;;4975562;28;20089;-61
2021/10/06 00:38:02;;;;;;;13.52;1.10;;;11.00;99.90;;;;;;4982365;28;20081;-61
2021/10/06 00:40:28;;;;;;;4.72;1.63;;;11.00;99.90;;;;;;4979860;28;20026;-60
2021/10/06 00:42:54;;;;;;;5.20;0.80;;;11.00;99.90;;;;;;4981480;28;20130;-63
2021/10/06 00:45:19;;;;;;;4.63;1.30;;;11.00;99.90;;;;;;4980762;28;20038;-61
2021/10/06 00:47:45;;;;;;;9.98;1.33;;;11.00;99.90;;;;;;4980082;28;20046;-61
2021/10/06 00:50:10;;;;;;;5.10;1.27;;;11.00;99.90;;;;;;4982220;28;20058;-62
2021/10/06 00:52:36;;;;;;;7.43;1.10;;;11.10;99.90;;;;;;4975435;28;20035;-63
2021/10/06 00:55:02;;;;;;;5.68;1.00;;;11.10;99.90;;;;;;4982418;28;20054;-61
2021/10/06 00:57:28;;;;;;;4.38;0.60;;;11.00;99.90;;;;;;4981967;28;20043;-63
2021/10/06 00:59:55;;;;;;;4.38;0.88;;;11.10;99.90;;;;;;4979955;28;20034;-62
2021/10/06 01:02:21;;;;;;;7.50;1.30;;;11.10;99.90;;;;;;4980145;28;20031;-61
2021/10/06 01:04:47;;;;;;;8.05;0.98;;;11.10;99.90;;;;;;4981913;28;20030;-62
2021/10/06 01:07:12;;;;;;;5.28;0.70;;;11.10;99.90;;;;;;4979028;28;20035;-62
2021/10/06 01:09:39;;;;;;;5.45;1.02;;;11.10;99.90;;;;;;4979002;28;20039;-62
2021/10/06 01:12:05;;;;;;;9.35;1.48;;;11.20;99.90;;;;;;4978610;28;20031;-63
2021/10/06 01:14:31;;;;;;;9.60;1.05;;;11.10;99.90;;;;;;4981761;28;20031;-60
2021/10/06 01:16:57;;;;;;;8.65;0.82;;;11.10;99.90;;;;;;4980525;28;20482;-61
2021/10/06 01:19:26;;;;;;;5.05;0.38;;;11.20;99.90;;;;;;4979706;28;20035;-61
2021/10/06 01:21:53;;;;;;;3.08;0.43;;;11.20;99.90;;;;;;4980760;28;20038;-62
2021/10/06 01:24:19;;;;;;;5.88;0.52;;;11.10;99.90;;;;;;4979405;28;20193;-62
2021/10/06 01:26:45;;;;;;;4.88;0.47;;;11.10;99.90;;;;;;4981617;28;20034;-61
2021/10/06 01:29:13;;;;;;;3.15;0.60;;;11.00;99.90;;;;;;4978631;28;20054;-62
2021/10/06 01:31:39;;;;;;;13.75;0.93;;;11.00;99.90;;;;;;4979981;28;20487;-62
2021/10/06 01:34:04;;;;;;;3.42;0.43;;;11.00;99.90;;;;;;4978921;28;20054;-62
2021/10/06 01:36:30;;;;;;;3.28;0.43;;;10.90;99.90;;;;;;4980934;28;20105;-61
2021/10/06 01:38:55;;;;;;;2.58;0.30;;;11.00;99.90;;;;;;4979361;28;20041;-62
2021/10/06 01:41:21;;;;;;;4.32;0.40;;;10.90;99.90;;;;;;4979976;28;20178;-61
2021/10/06 01:43:47;;;;;;;5.43;0.82;;;10.90;99.90;;;;;;4979769;28;20042;-65
2021/10/06 01:46:12;;;;;;;4.85;0.38;;;10.90;99.90;;;;;;4978559;28;20035;-61
2021/10/06 01:48:38;;;;;;;4.53;0.50;;;10.90;99.90;;;;;;4980652;28;20490;-62
2021/10/06 01:51:03;;;;;;;4.93;0.70;;;10.90;99.90;;;;;;4978837;28;20031;-61
2021/10/06 01:53:36;;;;;;;5.25;0.45;;;10.90;99.90;;;;;;4980421;28;20046;-63
2021/10/06 01:56:03;;;;;;;5.22;0.32;;;10.80;99.90;;;;;;4978410;28;20516;-62
2021/10/06 01:58:28;;;;;;;5.60;0.95;;;10.90;99.90;;;;;;4982812;28;20382;-61
2021/10/06 02:00:54;;;;;;;3.63;0.40;;;10.90;99.90;;;;;;4979408;28;20034;-62
2021/10/06 02:03:19;;;;;;;4.75;0.50;;;11.00;99.90;;;;;;4979425;28;20082;-61
2021/10/06 02:05:45;;;;;;;1.77;0.20;;;11.00;99.90;;;;;;4980247;28;20140;-60
2021/10/06 02:08:14;;;;;;;2.55;0.30;;;10.90;99.90;;;;;;4978640;28;20093;-60
2021/10/06 02:10:40;;;;;;;6.88;0.38;;;11.00;99.90;;;;;;4980303;28;20037;-63
2021/10/06 02:13:06;;;;;;;3.20;0.52;;;10.90;99.90;;;;;;4980559;28;20038;-65
2021/10/06 02:15:31;;;;;;;3.53;0.88;;;10.80;99.90;;;;;;4973554;28;20045;-62
2021/10/06 02:17:57;;;;;;;4.57;0.30;;;10.80;99.90;;;;;;4981005;28;20030;-62
2021/10/06 02:20:22;;;;;;;5.68;0.47;;;10.80;99.90;;;;;;4978265;28;20093;-62
2021/10/06 02:22:48;;;;;;;5.35;0.40;;;10.90;99.90;;;;;;4980739;28;20087;-61
2021/10/06 02:25:14;;;;;;;10.10;1.33;;;10.90;99.90;;;;;;4980465;28;20038;-63
2021/10/06 02:27:40;;;;;;;2.92;0.28;;;10.80;99.90;;;;;;4978099;28;20049;-63
2021/10/06 02:30:07;;;;;;;4.28;0.57;;;10.80;99.90;;;;;;4981102;28;20077;-61
2021/10/06 02:32:32;;;;;;;7.38;0.73;;;10.80;99.90;;;;;;4973548;28;20486;-61
2021/10/06 02:34:58;;;;;;;0.75;0.20;;;10.80;99.90;;;;;;4980949;28;20027;-62
2021/10/06 02:37:24;;;;;;;3.03;0.50;;;10.80;99.90;;;;;;4977960;28;20562;-61
2021/10/06 02:39:49;;;;;;;5.70;0.73;;;10.80;99.90;;;;;;4979574;28;20067;-65
2021/10/06 02:42:15;;;;;;;2.65;0.60;;;10.70;99.90;;;;;;4979822;28;20483;-62
2021/10/06 02:44:41;;;;;;;3.00;0.75;;;10.80;99.90;;;;;;4977949;28;20041;-61
2021/10/06 02:47:07;;;;;;;7.40;0.45;;;10.80;99.90;;;;;;4980898;28;20437;-62
2021/10/06 02:49:32;;;;;;;5.40;0.40;;;10.80;99.90;;;;;;4976835;28;20094;-64
2021/10/06 02:51:58;;;;;;;5.13;0.30;;;10.80;99.90;;;;;;4981150;28;20034;-60
2021/10/06 02:54:24;;;;;;;4.95;0.20;;;10.80;99.90;;;;;;4977223;28;20043;-64
2021/10/06 02:56:50;;;;;;;3.25;0.32;;;10.80;99.90;;;;;;4979533;28;20027;-60
2021/10/06 02:59:15;;;;;;;1.75;0.13;;;10.70;99.90;;;;;;4984190;28;20109;-62
2021/10/06 03:01:41;;;;;;;2.42;0.20;;;10.70;99.90;;;;;;4983049;28;20046;-60
2021/10/06 03:04:07;;;;;;;0.80;0.45;;;10.70;99.90;;;;;;4981867;28;20039;-62
2021/10/06 03:06:32;;;;;;;2.28;0.10;;;10.70;99.90;;;;;;4983380;28;20430;-62
2021/10/06 03:08:58;;;;;;;3.90;0.80;;;10.70;99.90;;;;;;4980698;28;20038;-62
2021/10/06 03:11:23;;;;;;;3.47;0.52;;;10.70;99.90;;;;;;4983811;28;20545;-63
2021/10/06 03:13:49;;;;;;;2.00;0.35;;;10.70;99.90;;;;;;4978384;28;20398;-60
2021/10/06 03:16:14;;;;;;;4.20;0.30;;;10.70;99.90;;;;;;4983045;28;20046;-60
2021/10/06 03:18:40;;;;;;;2.20;0.30;;;10.60;99.90;;;;;;4982942;28;20478;-61
2021/10/06 03:21:06;;;;;;;2.80;0.40;;;10.60;99.90;;;;;;4981230;28;20031;-61
2021/10/06 03:23:31;;;;;;;3.30;0.22;;;10.60;99.90;;;;;;4984186;28;20117;-61
2021/10/06 03:25:57;;;;;;;0.93;0.20;;;10.60;99.90;;;;;;4981197;28;20041;-62
2021/10/06 03:28:23;;;;;;;4.35;0.30;;;10.60;99.90;;;;;;4983247;28;20038;-61
2021/10/06 03:30:49;;;;;;;4.97;0.40;;;10.70;99.90;;;;;;4981863;28;20112;-62
2021/10/06 03:33:15;;;;;;;8.45;0.50;;;10.60;99.90;;;;;;4982791;28;20034;-63
2021/10/06 03:35:40;;;;;;;3.90;1.48;;;10.60;99.90;;;;;;4982779;28;20035;-62
2021/10/06 03:38:06;;;;;;;5.18;0.50;;;10.60;99.90;;;;;;4985194;28;20034;-62
2021/10/06 03:40:31;;;;;;;4.85;0.47;;;10.70;99.90;;;;;;4983881;28;20034;-61
2021/10/06 03:42:57;;;;;;;2.00;0.30;;;10.70;99.90;;;;;;4980592;28;20049;-62
2021/10/06 03:45:22;;;;;;;4.68;0.45;;;10.60;99.90;;;;;;4979481;28;20031;-61
2021/10/06 03:47:48;;;;;;;2.60;0.30;;;10.60;99.90;;;;;;4981335;28;20394;-62
2021/10/06 03:50:15;;;;;;;9.13;0.77;;;10.60;99.90;;;;;;4982430;28;20034;-62
2021/10/06 03:52:41;;;;;;;11.52;0.80;;;10.60;99.90;;;;;;4983802;28;20058;-62
2021/10/06 03:55:09;;;;;;;3.67;0.20;;;10.70;99.90;;;;;;4983638;28;20240;-62
2021/10/06 03:57:35;;;;;;;7.30;0.63;;;10.70;99.90;;;;;;4978683;28;20031;-62
2021/10/06 04:00:01;;;;;;;2.63;0.50;;;10.70;99.90;;;;;;4982978;28;20066;-61
2021/10/06 04:02:26;;;;;;;3.50;0.25;;;10.70;99.90;;;;;;4979796;28;20046;-62
2021/10/06 04:04:52;;;;;;;3.72;0.43;;;10.70;99.90;;;;;;4979162;28;20089;-62
2021/10/06 04:07:18;;;;;;;3.67;0.30;;;10.60;99.90;;;;;;4985847;28;20382;-63
2021/10/06 04:09:44;;;;;;;4.13;0.60;;;10.60;99.90;;;;;;4980793;28;20043;-62
2021/10/06 04:12:09;;;;;;;4.00;0.32;;;10.60;99.90;;;;;;4975470;28;20049;-63
2021/10/06 04:14:35;;;;;;;3.35;0.60;;;10.60;99.90;;;;;;4983542;28;20454;-61
2021/10/06 04:17:00;;;;;;;4.40;0.60;;;10.60;99.90;;;;;;4981673;28;20026;-62
2021/10/06 04:19:26;;;;;;;3.03;0.63;;;10.60;99.90;;;;;;4979218;28;20040;-62
2021/10/06 04:21:52;;;;;;;6.25;0.35;;;10.60;99.90;;;;;;4984626;28;20037;-61
2021/10/06 04:24:17;;;;;;;1.77;0.20;;;10.50;99.90;;;;;;4983077;28;20387;-62
2021/10/06 04:26:43;;;;;;;10.73;1.35;;;10.50;99.90;;;;;;4981165;28;20038;-61
2021/10/06 04:29:09;;;;;;;4.43;0.43;;;10.50;99.90;;;;;;4984347;28;20418;-63
2021/10/06 04:31:34;;;;;;;4.53;0.20;;;10.60;99.90;;;;;;4979989;28;20054;-62
2021/10/06 04:34:00;;;;;;;6.57;0.45;;;10.50;99.90;;;;;;4983008;28;20069;-61
2021/10/06 04:36:25;;;;;;;5.95;0.43;;;10.50;99.90;;;;;;4981223;28;20035;-62
2021/10/06 04:38:51;;;;;;;2.78;0.25;;;10.50;99.90;;;;;;4978925;28;20371;-61
2021/10/06 04:41:17;;;;;;;3.25;0.50;;;10.50;99.90;;;;;;4982557;28;20038;-62
2021/10/06 04:43:43;;;;;;;7.38;0.88;;;10.50;99.90;;;;;;4982912;28;20038;-62
2021/10/06 04:46:08;;;;;;;5.10;0.47;;;10.50;99.90;;;;;;4981379;28;20038;-62
2021/10/06 04:48:34;;;;;;;7.63;0.77;;;10.60;99.90;;;;;;4983432;28;20125;-62
2021/10/06 04:51:00;;;;;;;3.38;0.60;;;10.60;99.90;;;;;;4983908;28;20042;-62
2021/10/06 04:53:25;;;;;;;6.07;0.38;;;10.60;99.90;;;;;;4979017;28;20046;-61
2021/10/06 04:55:51;;;;;;;6.63;0.40;;;10.60;99.90;;;;;;4979741;28;20066;-62
2021/10/06 04:58:16;;;;;;;3.25;0.50;;;10.60;99.90;;;;;;4971760;28;20031;-61
2021/10/06 05:00:42;;;;;;;6.22;1.00;;;10.70;99.90;;;;;;4978338;28;20027;-61
2021/10/06 05:03:09;;;;;;;5.05;0.50;;;10.60;99.90;;;;;;4979429;28;20049;-62
2021/10/06 05:05:37;;;;;;;5.13;1.58;;;10.70;99.90;;;;;;4978428;28;20062;-63
2021/10/06 05:08:03;;;;;;;5.28;1.08;;;10.70;99.90;;;;;;4972050;28;20038;-61
2021/10/06 05:10:29;;;;;;;2.55;0.50;;;10.70;99.90;;;;;;4980833;28;20023;-61
2021/10/06 05:12:54;;;;;;;4.18;1.05;;;10.80;99.90;;;;;;4973134;28;20031;-62
2021/10/06 05:15:20;;;;;;;4.78;1.02;;;10.80;99.90;;;;;;4973349;28;20457;-62
2021/10/06 05:17:46;;;;;;;11.57;0.82;;;10.80;99.90;;;;;;4972220;28;20027;-61
2021/10/06 05:20:12;;;;;;;3.65;0.60;;;10.80;99.90;;;;;;4971559;28;20040;-61
2021/10/06 05:22:41;;;;;;;7.95;0.50;;;10.80;99.90;;;;;;4969721;28;20034;-61
2021/10/06 05:25:07;;;;;;;6.45;0.60;;;10.90;99.90;;;;;;4978951;28;20391;-62
2021/10/06 05:27:33;;;;;;;7.68;0.63;;;10.80;99.90;;;;;;4960671;28;20043;-62
2021/10/06 05:30:00;;;;;;;12.80;1.63;;;10.90;99.90;;;;;;4965061;28;20439;-62
2021/10/06 05:32:26;;;;;;;4.05;0.80;;;10.90;99.90;;;;;;4967466;28;20117;-60
2021/10/06 05:34:52;;;;;;;7.68;1.33;;;10.90;99.90;;;;;;4966420;28;20121;-62
2021/10/06 05:37:17;;;;;;;6.57;0.73;;;10.90;99.90;;;;;;4966182;28;20035;-62
2021/10/06 05:39:43;;;;;;;9.18;0.50;;;11.00;99.90;;;;;;4966573;28;20033;-62
2021/10/06 05:42:09;;;;;;;2.20;0.55;;;11.10;99.90;;;;;;4967892;28;20043;-61
2021/10/06 05:44:34;;;;;;;8.25;0.98;;;11.00;99.90;;;;;;4965503;28;20133;-62
2021/10/06 05:47:00;;;;;;;4.18;0.63;;;11.00;99.90;;;;;;4968818;28;20367;-61
2021/10/06 05:49:26;;;;;;;7.28;0.47;;;11.00;99.90;;;;;;4960335;28;20043;-61
2021/10/06 05:51:52;;;;;;;5.55;1.00;;;11.10;99.90;;;;;;4963272;28;20035;-61
2021/10/06 05:54:17;;;;;;;8.60;1.45;;;11.10;99.90;;;;;;4966951;28;20037;-61
2021/10/06 05:56:43;;;;;;;11.60;1.67;;;11.20;99.90;;;;;;4962773;28;20042;-60
2021/10/06 05:59:09;;;;;;;4.88;0.77;;;11.20;99.90;;;;;;4969022;28;20149;-63
2021/10/06 06:01:34;;;;;;;11.27;2.15;;;11.20;99.90;;;;;;4968664;28;20066;-62
2021/10/06 06:04:00;;;;;;;6.82;0.93;;;11.20;99.90;;;;;;4972487;28;20038;-61
2021/10/06 06:06:25;;;;;;;10.23;1.15;;;11.20;99.90;;;;;;4965021;28;20295;-60
2021/10/06 06:08:51;;;;;;;9.45;1.02;;;11.30;99.90;;;;;;4968968;28;20078;-60
2021/10/06 06:11:17;;;;;;;10.27;1.00;;;11.30;99.90;;;;;;4971315;28;20034;-61
2021/10/06 06:13:42;;;;;;;6.78;1.30;;;11.30;99.90;;;;;;4964059;28;20514;-64
2021/10/06 06:16:08;;;;;;;10.30;0.80;;;11.30;99.90;;;;;;4967787;28;20039;-61
2021/10/06 06:18:34;;;;;;;10.85;1.25;;;11.20;99.90;;;;;;4965981;28;20058;-61
2021/10/06 06:21:00;;;;;;;9.50;1.30;;;11.30;99.90;;;;;;4970288;28;20617;-62
2021/10/06 06:23:26;;;;;;;8.95;0.68;;;11.30;99.90;;;;;;4965942;28;20058;-61
2021/10/06 06:25:52;;;;;;;7.47;1.00;;;11.30;99.90;;;;;;4972036;28;20066;-63
2021/10/06 06:28:18;;;;;;;15.10;1.52;;;11.30;99.90;;;;;;4970262;28;20058;-61
2021/10/06 06:30:44;;;;;;;7.32;1.48;;;11.30;99.90;;;;;;4964306;28;20035;-60
2021/10/06 06:33:09;;;;;;;9.18;0.95;;;11.30;99.90;;;;;;4971129;28;20035;-61
2021/10/06 06:35:35;;;;;;;9.95;1.67;;;11.30;99.90;;;;;;4971144;28;20085;-62
2021/10/06 06:38:01;;;;;;;8.80;1.15;;;11.30;99.90;;;;;;4971677;28;20529;-61
2021/10/06 06:40:27;;;;;;;12.25;1.45;;;11.40;99.90;;;;;;4970945;28;20027;-61
2021/10/06 06:42:52;;;;;;;6.90;0.80;;;11.30;99.90;;;;;;4970230;28;20577;-61
2021/10/06 06:45:18;;;;;;;9.70;1.20;;;11.30;99.90;;;;;;4969328;28;20054;-61
2021/10/06 06:47:44;;;;;;;5.53;0.90;;;11.30;99.90;;;;;;4968833;28;20035;-63
2021/10/06 06:50:12;;;;;;;6.03;1.45;;;11.40;99.90;;;;;;4967980;28;20544;-61
2021/10/06 06:52:38;;;;;;;11.20;1.25;;;11.40;99.90;;;;;;4969478;28;20035;-61
2021/10/06 06:55:05;;;;;;;7.13;0.90;;;11.40;99.90;;;;;;4970385;28;20093;-61
2021/10/06 06:57:30;;;;;;;12.82;0.80;;;11.40;99.90;;;;;;4968823;28;20026;-62
2021/10/06 06:59:56;;;;;;;3.42;0.55;;;11.30;99.90;;;;;;4961978;28;20483;-61
2021/10/06 07:02:22;;;;;;;9.35;0.93;;;11.30;99.90;;;;;;4968265;28;20054;-61
2021/10/06 07:04:48;;;;;;;4.22;0.80;;;11.40;99.90;;;;;;4967554;28;20680;-62
2021/10/06 07:07:14;;;;;;;11.30;1.08;;;11.30;99.90;;;;;;4973427;28;20066;-62
2021/10/06 07:09:47;;;;;;;7.72;1.08;;;11.30;99.90;;;;;;4966631;28;20074;-63
2021/10/06 07:12:15;;;;;;;6.53;1.38;;;11.30;99.90;;;;;;4969331;28;20151;-61
2021/10/06 07:14:41;;;;;;;5.78;1.23;;;11.40;99.90;;;;;;4972223;28;20049;-61
2021/10/06 07:17:06;;;;;;;11.73;1.13;;;11.40;99.90;;;;;;4966480;28;20039;-61
2021/10/06 07:19:32;;;;;;;3.40;0.60;;;11.40;99.90;;;;;;4969953;28;20125;-61
2021/10/06 07:21:57;;;;;;;7.22;0.80;;;11.50;99.90;;;;;;4970001;28;20702;-61
2021/10/06 07:24:23;;;;;;;8.02;0.65;;;11.40;99.90;;;;;;4972598;28;20125;-62
2021/10/06 07:26:49;;;;;;;5.30;1.20;;;11.40;99.90;;;;;;4969641;28;20026;-62
2021/10/06 07:29:14;;;;;;;4.95;1.10;;;11.40;99.90;;;;;;4967814;28;20049;-61
2021/10/06 07:31:40;;;;;;;7.13;1.05;;;11.50;99.90;;;;;;4967832;28;20106;-62
2021/10/06 07:34:06;;;;;;;8.05;1.77;;;11.50;99.90;;;;;;4971769;28;20054;-61
2021/10/06 07:36:32;;;;;;;7.75;0.90;;;11.50;99.90;;;;;;4970043;28;20035;-61
2021/10/06 07:38:58;;;;;;;3.58;0.93;;;11.50;99.90;;;;;;4968130;28;20034;-61
2021/10/06 07:41:23;;;;;;;7.43;1.48;;;11.50;99.90;;;;;;4968293;28;20049;-61
2021/10/06 07:43:49;;;;;;;7.00;0.77;;;11.50;99.90;;;;;;4970137;28;20031;-61
2021/10/06 07:46:15;;;;;;;12.07;1.40;;;11.60;99.90;;;;;;4974064;28;20069;-62
2021/10/06 07:48:41;;;;;;;12.15;1.60;;;11.60;99.90;;;;;;4963742;28;20070;-61
2021/10/06 07:51:07;;;;;;;7.60;0.55;;;11.60;99.90;;;;;;4972776;28;20042;-61
2021/10/06 07:53:32;;;;;;;1.73;0.40;;;11.70;99.90;;;;;;4974912;28;20038;-61
2021/10/06 07:55:58;;;;;;;5.53;0.57;;;11.70;99.90;;;;;;4978568;28;20038;-60
2021/10/06 07:58:24;;;;;;;3.65;1.23;;;11.80;99.90;;;;;;4969134;28;20026;-61
2021/10/06 08:00:49;;;;;;;6.72;0.85;;;11.90;99.90;;;;;;4969701;28;20023;-61
2021/10/06 08:03:15;;;;;;;6.95;1.23;;;12.00;99.90;;;;;;4970348;28;20035;-61
2021/10/06 08:05:41;;;;;;;6.93;1.45;;;12.00;99.90;;;;;;4972278;28;20685;-61
2021/10/06 08:08:06;;;;;;;5.13;0.90;;;12.00;99.90;;;;;;4972098;28;20097;-61
2021/10/06 08:10:32;;;;;;;5.70;0.40;;;12.10;99.90;;;;;;4971637;28;20395;-61
2021/10/06 08:13:03;;;;;;;2.78;0.40;;;12.10;99.90;;;;;;4974583;28;20035;-61
2021/10/06 08:15:29;;;;;;;1.95;0.35;;;12.10;99.90;;;;;;4972194;28;20026;-62
2021/10/06 08:17:55;;;;;;;1.08;0.10;;;12.00;99.90;;;;;;4973722;28;20047;-62
2021/10/06 08:20:21;;;;;;;2.60;0.20;;;12.00;99.90;;;;;;4969852;28;20514;-66
2021/10/06 08:22:46;;;;;;;2.97;0.38;;;11.90;99.90;;;;;;4971430;28;20039;-62
2021/10/06 08:25:12;;;;;;;2.00;0.20;;;11.90;99.90;;;;;;4973695;28;20038;-61
2021/10/06 08:27:38;;;;;;;3.00;0.38;;;11.80;99.90;;;;;;4971881;28;20539;-61
2021/10/06 08:30:04;;;;;;;4.75;0.47;;;11.70;99.90;;;;;;4969693;28;20046;-62
2021/10/06 08:32:30;;;;;;;2.17;0.20;;;11.60;99.90;;;;;;4968486;28;20255;-61
2021/10/06 08:34:56;;;;;;;1.60;0.20;;;11.60;99.90;;;;;;4973171;28;20054;-61
2021/10/06 08:37:21;;;;;;;3.65;0.50;;;11.60;99.90;;;;;;4970413;28;20106;-62
2021/10/06 08:39:47;;;;;;;2.20;0.20;;;11.60;99.90;;;;;;4977090;28;20034;-63
2021/10/06 08:42:13;;;;;;;2.45;0.20;;;11.70;99.90;;;;;;4971438;28;20054;-61
2021/10/06 08:44:39;;;;;;;0.32;0.13;;;11.80;99.90;;;;;;4971268;28;20126;-62
2021/10/06 08:47:06;;;;;;;6.65;0.30;;;11.80;99.90;;;;;;4971824;28;20045;-62
2021/10/06 08:49:32;;;;;;;6.35;0.50;;;11.90;99.90;;;;;;4971978;28;20117;-60
2021/10/06 08:51:58;;;;;;;2.90;0.45;;;11.80;99.90;;;;;;4973850;28;20439;-62
2021/10/06 08:54:23;;;;;;;3.03;0.20;;;11.90;99.90;;;;;;4965593;28;20601;-62
2021/10/06 08:56:49;;;;;;;6.40;0.30;;;11.90;99.90;;;;;;4970805;28;20442;-61
2021/10/06 08:59:15;;;;;;;3.03;0.50;;;11.90;99.90;;;;;;4970756;28;20443;-61
2021/10/06 09:01:43;;;;;;;1.50;0.20;;;12.00;99.90;;;;;;4970884;28;20042;-62
2021/10/06 09:04:09;;;;;;;4.15;0.50;;;12.00;99.90;;;;;;4971347;28;20122;-61
2021/10/06 09:06:37;;;;;;;4.45;0.77;;;12.10;99.90;;;;;;4973042;28;20042;-61
2021/10/06 09:09:11;;;;;;;4.53;0.45;;;12.20;99.90;;;;;;4972407;28;20477;-60
2021/10/06 09:11:37;;;;;;;4.13;0.73;;;12.20;99.90;;;;;;4970878;28;20042;-62
2021/10/06 09:14:06;;;;;;;4.30;0.47;;;12.30;99.90;;;;;;4971485;28;20138;-61
2021/10/06 09:16:32;;;;;;;7.03;1.90;;;12.30;99.90;;;;;;4973361;28;20391;-61
2021/10/06 09:18:58;;;;;;;9.35;1.08;;;12.30;99.90;;;;;;4971837;28;20117;-61
2021/10/06 09:21:23;;;;;;;6.53;0.80;;;12.20;99.90;;;;;;4967932;28;20150;-60
2021/10/06 09:23:49;;;;;;;4.55;0.98;;;12.20;99.90;;;;;;4972715;28;20031;-61
2021/10/06 09:26:15;;;;;;;8.10;0.90;;;12.20;99.90;;;;;;4968521;28;20046;-61
2021/10/06 09:28:50;;;;;;;6.57;0.52;;;12.30;99.90;;;;;;4971853;28;20462;-61
2021/10/06 09:31:26;;;;;;;2.13;0.63;;;12.30;99.90;;;;;;4971744;28;20126;-61
2021/10/06 09:33:54;;;;;;;7.65;0.60;;;12.40;99.90;;;;;;4972498;28;20041;-61
2021/10/06 09:36:28;;;;;;;1.95;0.40;;;12.50;99.90;;;;;;4971746;28;20070;-61
2021/10/06 09:38:59;;;;;;;4.93;0.65;;;12.60;99.90;;;;;;4975061;28;20034;-61
2021/10/06 09:41:35;;;;;;;7.72;0.80;;;12.70;99.90;;;;;;4975629;28;20039;-61
2021/10/06 09:44:18;;;;;;;2.35;0.57;;;12.70;99.90;;;;;;4973545;28;20073;-61
2021/10/06 09:46:58;;;;;;;10.43;1.27;;;12.70;99.90;;;;;;4974808;28;20049;-60
2021/10/06 09:49:40;;;;;;;4.88;0.40;;;12.80;99.90;;;;;;4970517;28;20454;-60
2021/10/06 09:52:23;;;;;;;4.30;0.80;;;12.80;99.90;;;;;;4970640;28;20138;-61
2021/10/06 09:54:52;;;;;;;6.00;1.23;;;12.90;99.90;;;;;;4969736;28;20039;-62
2021/10/06 09:57:38;;;;;;;12.48;2.15;;;13.00;99.90;;;;;;4961299;28;20039;-61
2021/10/06 10:00:10;;;;;;;12.30;1.10;;;13.20;99.90;;;;;;4965431;28;20043;-62
2021/10/06 10:02:36;;;;;;;7.65;1.13;;;13.40;99.90;;;;;;4974389;28;20055;-61
2021/10/06 10:05:04;;;;;;;5.05;1.05;;;13.70;99.90;;;;;;4968002;28;20062;-61
2021/10/06 10:07:30;;;;;;;7.00;1.10;;;13.90;99.90;;;;;;4963981;28;20046;-63
2021/10/06 10:09:57;;;;;;;6.97;1.40;;;14.10;99.90;;;;;;4967357;28;20041;-61
2021/10/06 10:12:25;;;;;;;4.20;0.68;;;14.40;99.90;;;;;;4972326;28;20042;-61
2021/10/06 10:14:51;;;;;;;6.80;0.50;;;14.40;99.90;;;;;;4962967;28;20125;-60
2021/10/06 10:17:18;;;;;;;4.10;0.80;;;14.50;99.90;;;;;;4963857;28;20426;-61
2021/10/06 10:19:46;;;;;;;7.32;1.08;;;14.60;99.90;;;;;;4965570;28;20050;-61
2021/10/06 10:22:13;;;;;;;7.28;0.73;;;14.70;99.90;;;;;;4964590;28;20121;-61
2021/10/06 10:24:49;;;;;;;8.20;1.20;;;14.70;99.90;;;;;;4967884;28;20058;-62
2021/10/06 10:27:18;;;;;;;9.20;1.33;;;14.60;99.90;;;;;;4965785;28;20042;-61
2021/10/06 10:29:47;;;;;;;6.47;0.70;;;14.80;99.90;;;;;;4969384;28;20039;-61
2021/10/06 10:32:21;;;;;;;7.03;1.00;;;14.90;99.90;;;;;;4963188;28;20027;-61
2021/10/06 10:35:05;;;;;;;17.10;1.48;;;14.90;99.90;;;;;;4967505;28;20042;-62
2021/10/06 10:37:59;;;;;;;12.45;2.08;;;14.80;99.90;;;;;;4962498;28;20034;-63
2021/10/06 10:40:32;;;;;;;17.90;0.85;;;14.90;99.90;;;;;;4963527;28;20039;-61
2021/10/06 10:42:57;;;;;;;8.43;1.13;;;15.10;99.90;;;;;;4969279;28;20472;-61
2021/10/06 10:45:43;;;;;;;12.40;2.15;;;15.40;99.90;;;;;;4970734;28;20117;-64
2021/10/06 10:48:11;;;;;;;4.68;0.90;;;15.50;99.90;;;;;;4968204;28;20039;-63
2021/10/06 10:50:56;;;;;;;6.82;1.13;;;15.50;99.90;;;;;;4977272;28;20041;-61
2021/10/06 10:53:50;;;;;;;8.20;1.10;;;15.30;99.90;;;;;;4970101;28;20163;-61
2021/10/06 10:56:39;;;;;;;5.43;0.63;;;15.10;99.90;;;;;;4968067;28;20039;-60
2021/10/06 10:59:10;;;;;;;7.15;1.08;;;15.00;99.90;;;;;;4973658;28;20027;-61
2021/10/06 11:01:41;;;;;;;3.47;0.43;;;14.90;99.90;;;;;;4971258;28;20039;-61
2021/10/06 11:04:08;;;;;;;12.45;0.50;;;14.80;99.90;;;;;;4969238;28;20039;-61
2021/10/06 11:06:39;;;;;;;6.88;0.75;;;14.80;99.90;;;;;;4970979;28;20042;-61
2021/10/06 11:09:30;;;;;;;4.65;0.60;;;14.80;99.90;;;;;;4967927;28;20039;-62
2021/10/06 11:12:04;;;;;;;4.15;0.40;;;14.60;99.90;;;;;;4967627;28;20043;-60
2021/10/06 11:14:31;;;;;;;2.08;0.28;;;14.20;99.90;;;;;;4967675;28;20436;-61
2021/10/06 11:17:10;;;;;;;1.17;0.15;;;13.90;99.90;;;;;;4974130;28;20483;-63
2021/10/06 11:19:51;;;;;;;3.72;0.10;;;13.60;99.90;;;;;;4968649;28;20050;-61
2021/10/06 11:22:23;;;;;;;0.80;0.05;;;13.50;99.90;;;;;;4977220;28;20394;-61
2021/10/06 11:24:49;;;;;;;0.57;0.10;;;13.60;99.90;;;;;;4974452;28;20109;-61
2021/10/06 11:27:15;;;;;;;3.17;0.10;;;13.80;99.90;;;;;;4975709;28;20072;-60
2021/10/06 11:29:51;;;;;;;2.95;0.25;;;13.90;99.90;;;;;;4976011;28;20050;-61
2021/10/06 11:32:17;;;;;;;3.35;0.20;;;14.00;99.90;;;;;;4970487;28;20027;-60
2021/10/06 11:34:47;;;;;;;3.22;0.32;;;14.10;99.90;;;;;;4972720;28;20046;-61
2021/10/06 11:37:27;;;;;;;5.63;0.68;;;14.40;99.90;;;;;;4971568;28;20035;-61
2021/10/06 11:39:54;;;;;;;6.60;0.80;;;14.70;99.90;;;;;;4969334;28;20384;-62
2021/10/06 11:42:29;;;;;;;8.05;0.85;;;15.00;99.90;;;;;;4978946;28;20117;-62
2021/10/06 11:44:55;;;;;;;7.00;0.68;;;15.10;99.90;;;;;;4970156;28;20046;-61
2021/10/06 11:47:21;;;;;;;10.85;1.33;;;15.20;99.90;;;;;;4971951;28;20039;-60
2021/10/06 11:49:50;;;;;;;6.15;0.60;;;15.20;99.90;;;;;;4970301;28;20129;-61
2021/10/06 11:52:20;;;;;;;11.27;0.77;;;15.30;99.90;;;;;;4974856;28;20039;-61
2021/10/06 11:54:48;;;;;;;5.32;1.15;;;15.40;99.90;;;;;;4975981;28;20278;-61
2021/10/06 11:57:14;;;;;;;8.25;1.55;;;15.40;99.90;;;;;;4986038;28;20090;-63
2021/10/06 11:59:46;;;;;;;6.05;0.68;;;15.50;99.90;;;;;;4976503;28;20059;-61
2021/10/06 12:02:13;;;;;;;15.60;1.90;;;15.40;99.90;;;;;;4973136;28;20122;-60
2021/10/06 12:04:44;;;;;;;4.20;1.38;;;15.40;99.90;;;;;;4970556;28;20086;-60
2021/10/06 12:07:12;;;;;;;7.13;1.17;;;15.40;99.90;;;;;;4972911;28;20039;-59
2021/10/06 12:09:39;;;;;;;4.28;0.98;;;15.40;99.90;;;;;;4973347;28;20403;-60
2021/10/06 12:12:09;;;;;;;2.08;0.40;;;15.50;99.90;;;;;;4975808;28;20490;-61
2021/10/06 12:14:45;;;;;;;11.88;0.75;;;15.60;99.90;;;;;;4974561;28;20070;-61
2021/10/06 12:17:15;;;;;;;10.45;1.35;;;15.70;99.90;;;;;;4973641;28;20130;-61
2021/10/06 12:19:51;;;;;;;6.47;0.82;;;15.80;99.90;;;;;;4968072;28;20131;-60
2021/10/06 12:22:17;;;;;;;5.70;1.05;;;15.80;99.90;;;;;;4961638;28;20046;-60
2021/10/06 12:24:43;;;;;;;5.38;0.77;;;15.70;99.90;;;;;;4966016;28;20118;-60
2021/10/06 12:27:33;;;;;;;9.82;1.15;;;15.60;99.90;;;;;;4971569;28;20039;-60
2021/10/06 12:30:13;;;;;;;8.75;0.93;;;15.50;99.90;;;;;;4970429;28;20034;-61
2021/10/06 12:32:44;;;;;;;5.77;0.77;;;15.60;99.90;;;;;;4971296;28;20050;-61
2021/10/06 12:35:13;;;;;;;6.25;1.80;;;15.70;99.90;;;;;;4975683;28;20479;-61
2021/10/06 12:37:54;;;;;;;13.60;1.45;;;15.90;99.90;;;;;;4974249;28;20105;-61
2021/10/06 12:40:33;;;;;;;3.10;0.50;;;16.20;99.90;;;;;;4962060;28;20568;-61
2021/10/06 12:43:04;;;;;;;8.05;0.70;;;16.40;99.90;;;;;;4965156;28;20050;-60
2021/10/06 12:45:31;;;;;;;2.55;0.40;;;16.50;99.90;;;;;;4968360;28;20051;-61
2021/10/06 12:47:57;;;;;;;4.70;0.47;;;16.50;99.90;;;;;;4968970;28;20498;-61